CheckWX is a tool to help pilots better visualize weather data.  It is not intended as a substitute for an official pre-flight weather briefing.

16:43:04 UTC

KLJF METAR
Litchfield Municipal Airport
Litchfield, Minnesota, USA
Current

28 mins ago

KLJF 101615Z AUTO 27006KT 10SM CLR 26/17 A3000 RMK AO2
Observed
Jul-10 @ 16:15 UTC
Wind
  • 270° at 6 KTS
Visibility
10 SM
Flight Rules
VFR
Cloud Levels
  • Clear skies
Temperature
26°C / 79°F
Dewpoint
17°C / 63°F
Humidity
58%
Altimeter
30" Hg
Pressure
1015.92 hPa
Previous

48 mins ago

KLJF 101555Z AUTO 32007KT 10SM CLR 26/17 A2999 RMK AO2
Observed
Jul-10 @ 15:55 UTC
Wind
  • 320° at 7 KTS
Visibility
10 SM
Flight Rules
VFR
Cloud Levels
  • Clear skies
Temperature
26°C / 79°F
Dewpoint
17°C / 63°F
Humidity
58%
Altimeter
29.99" Hg
Pressure
1015.62 hPa
Previous

1 hour ago

KLJF 101536Z AUTO 28005KT 10SM CLR 24/16 A2999 RMK AO2
Observed
Jul-10 @ 15:36 UTC
Wind
  • 280° at 5 KTS
Visibility
10 SM
Flight Rules
VFR
Cloud Levels
  • Clear skies
Temperature
24°C / 75°F
Dewpoint
16°C / 61°F
Humidity
61%
Altimeter
29.99" Hg
Pressure
1015.62 hPa